SBRJ

Details ICAO SBRJ (SDU)
Name Santos-Dumont
Region Brazil
Timezone Unknown (UTC+0.0)
Plans Departing 388
Arriving 466
Stats Elevation 11 ft / 3 m (AMSL)
Location -22.910460° -43.163133°
Runways 2
Magnetic Variation 22.782° W
Sunrise 2017-12-16 08:03:43 UTC / 2017-12-16 08:03:43 Local
Sunset 2017-12-16 21:35:44 UTC / 2017-12-16 21:35:44 Local
Advertisement - Login to hide

Runways

ID Width Length Bearing (true) Bearing (mag) Surface Threshold Offset Overrun Length
02L 98 ft / 30 m 4,154 ft / 1,266 m 358.02° 20.80° Asphalt 0 ft / 0 m 80 ft / 24 m
02R 138 ft / 42 m 4,361 ft / 1,329 m 358.01° 20.79° Asphalt 0 ft / 0 m 80 ft / 24 m
20L 138 ft / 42 m 4,361 ft / 1,329 m 178.01° 200.79° Asphalt 0 ft / 0 m 80 ft / 24 m
20R 98 ft / 30 m 4,154 ft / 1,266 m 178.02° 200.80° Asphalt 0 ft / 0 m 95 ft / 29 m

Approach Navaids

Runway Type Ident Frequency Range Bearing (true) Bearing (mag) Slope Elevation
20L Localiser IRJ 111.10 MHz 18 nm / 33 km 172.42° 195.20° - 11 ft / 3 m (AMSL)

Map

Weather


0- 5 10 15 20 25 30 35+ Temperature / ° C

Clouds and Precipitation
Forecast for 2017-12-16 06:00 UTC. Updated 32 minutes ago

Ground ~20,000 ft ~40,000 ft Winds

METAR

SBRJ 160500Z 16007KT CAVOK 22/21 Q1011

TAF

Not found

Frequencies

Recorded 132.65 MHz ATIS
Ground 121.70 MHz GND
Approach 119.35 MHz RIO CON
Clearance 121.05 MHz TFC
Tower 118.70 MHz RIO TWR
Warning: Do not use this data for real-world aviation or navigation. No guarantee of current accuracy is given.